Time;durP1;ratioP1;P1;durP2;ratioP2;P2;SDS_P1;SDS_P2;PMS_P1;PMS_P2;Temp;Humidity;BMP_temperature;BMP_pressure;BME280_temperature;BME280_humidity;BME280_pressure;Samples;Min_cycle;Max_cycle;Signal;HPM_P1;HPM_P2
2022/09/06 00:01:14;;;;;;;;;;;20.90;96.60;;;;;;5092248;28;19927;-78
2022/09/06 00:03:40;;;;;;;;;;;20.90;96.40;;;;;;5094814;28;19920;-77
2022/09/06 00:06:07;;;;;;;;;;;20.90;96.50;;;;;;5075534;28;20245;-78
2022/09/06 00:08:35;;;;;;;;;;;21.00;96.50;;;;;;5076804;28;19924;-77
2022/09/06 00:11:01;;;;;;;;;;;20.90;96.50;;;;;;5076286;28;20295;-77
2022/09/06 00:13:27;;;;;;;;;;;21.10;96.40;;;;;;5093952;28;20016;-79
2022/09/06 00:15:52;;;;;;;;;;;20.90;96.10;;;;;;5066787;28;19959;-80
2022/09/06 00:18:18;;;;;;;;;;;20.90;96.40;;;;;;5049735;28;19925;-78
2022/09/06 00:20:43;;;;;;;;;;;20.90;96.20;;;;;;5053265;28;19927;-78
2022/09/06 00:23:09;;;;;;;;;;;20.90;96.30;;;;;;5053831;28;19929;-77
2022/09/06 00:25:34;;;;;;;;;;;20.90;96.20;;;;;;5036329;28;19984;-78
2022/09/06 00:28:01;;;;;;;;;;;21.00;96.30;;;;;;5035177;28;19921;-78
2022/09/06 00:30:28;;;;;;;;;;;21.00;96.20;;;;;;5036568;28;19927;-78
2022/09/06 00:32:53;;;;;;;;;;;21.00;96.40;;;;;;5074607;28;20261;-78
2022/09/06 00:35:19;;;;;;;;;;;21.00;96.40;;;;;;5055439;28;19931;-77
2022/09/06 00:37:45;;;;;;;;;;;21.00;96.20;;;;;;5074078;28;20330;-76
2022/09/06 00:40:11;;;;;;;;;;;20.90;96.50;;;;;;5073647;28;19920;-76
2022/09/06 00:42:37;;;;;;;;;;;20.90;96.40;;;;;;5055370;28;19923;-77
2022/09/06 00:45:03;;;;;;;;;;;20.90;96.30;;;;;;5073579;28;20387;-77
2022/09/06 00:47:29;;;;;;;;;;;20.80;96.50;;;;;;5074723;28;20441;-77
2022/09/06 00:49:56;;;;;;;;;;;20.80;96.40;;;;;;5092367;28;20399;-76
2022/09/06 00:52:22;;;;;;;;;;;20.80;96.40;;;;;;5075659;28;20433;-76
2022/09/06 00:54:49;;;;;;;;;;;20.80;96.70;;;;;;5093958;28;19926;-76
2022/09/06 00:57:15;;;;;;;;;;;20.70;96.70;;;;;;5074835;28;19920;-77
2022/09/06 00:59:41;;;;;;;;;;;20.70;97.20;;;;;;5075497;28;19926;-77
2022/09/06 01:02:08;;;;;;;;;;;20.60;96.90;;;;;;5073804;28;20287;-77
2022/09/06 01:04:34;;;;;;;;;;;20.60;97.10;;;;;;5092708;28;19965;-77
2022/09/06 01:07:19;;;;;;;;;;;20.70;97.00;;;;;;5075211;28;20341;-77
2022/09/06 01:09:44;;;;;;;;;;;20.60;96.80;;;;;;5092854;28;19920;-77
2022/09/06 01:12:21;;;;;;;;;;;20.70;96.60;;;;;;5074689;28;19927;-77
2022/09/06 01:14:47;;;;;;;;;;;20.70;96.60;;;;;;5075198;28;19924;-77
2022/09/06 01:17:15;;;;;;;;;;;20.70;96.50;;;;;;5054100;28;19928;-77
2022/09/06 01:20:00;;;;;;;;;;;20.70;96.50;;;;;;5035263;28;19921;-78
2022/09/06 01:22:47;;;;;;;;;;;20.70;96.30;;;;;;5035277;28;19927;-78
2022/09/06 01:25:31;;;;;;;;;;;20.80;96.40;;;;;;5034082;28;20323;-77
2022/09/06 01:28:03;;;;;;;;;;;20.70;96.40;;;;;;5035235;28;20288;-79
2022/09/06 01:30:31;;;;;;;;;;;20.70;96.40;;;;;;5052386;28;19931;-78
2022/09/06 01:32:56;;;;;;;;;;;20.70;96.30;;;;;;5052917;28;19924;-79
2022/09/06 01:35:22;;;;;;;;;;;20.70;96.30;;;;;;5052993;28;20261;-79
2022/09/06 01:37:47;;;;;;;;;;;20.70;96.30;;;;;;5050979;28;20011;-79
2022/09/06 01:40:13;;;;;;;;;;;20.70;96.40;;;;;;5051347;28;20369;-78
2022/09/06 01:42:40;;;;;;;;;;;20.60;96.30;;;;;;5053306;28;20011;-79
2022/09/06 01:45:11;;;;;;;;;;;20.60;96.10;;;;;;5058170;28;20350;-78
2022/09/06 01:47:59;;;;;;;;;;;20.60;96.30;;;;;;5080612;28;20318;-79
2022/09/06 01:50:45;;;;;;;;;;;20.60;96.10;;;;;;5052896;28;19946;-79
2022/09/06 01:53:35;;;;;;;;;;;20.60;96.20;;;;;;5081149;28;20245;-79
2022/09/06 01:56:11;;;;;;;;;;;20.60;96.20;;;;;;5067824;28;19920;-79
2022/09/06 01:58:46;;;;;;;;;;;20.50;96.10;;;;;;5078797;28;20015;-78
2022/09/06 02:01:11;;;;;;;;;;;20.50;96.40;;;;;;5061184;28;20353;-78
2022/09/06 02:03:51;;;;;;;;;;;20.50;96.30;;;;;;5079571;28;20007;-77
2022/09/06 02:06:22;;;;;;;;;;;20.50;96.30;;;;;;5061045;28;20284;-77
2022/09/06 02:08:50;;;;;;;;;;;20.50;96.30;;;;;;5061602;28;19921;-78
2022/09/06 02:11:16;;;;;;;;;;;20.50;96.40;;;;;;5059045;28;19928;-78
2022/09/06 02:13:45;;;;;;;;;;;20.40;96.50;;;;;;5057505;28;19924;-78
2022/09/06 02:16:14;;;;;;;;;;;20.50;96.70;;;;;;5061104;28;19916;-77
2022/09/06 02:18:45;;;;;;;;;;;20.40;96.50;;;;;;5079295;28;19924;-77
2022/09/06 02:21:14;;;;;;;;;;;20.40;96.70;;;;;;5060238;28;19928;-78
2022/09/06 02:23:41;;;;;;;;;;;20.40;96.50;;;;;;5079220;28;20412;-78
2022/09/06 02:26:09;;;;;;;;;;;20.40;96.80;;;;;;5062160;28;20304;-77
2022/09/06 02:28:35;;;;;;;;;;;20.40;96.70;;;;;;5060801;28;19959;-76
2022/09/06 02:31:02;;;;;;;;;;;20.30;96.50;;;;;;5097181;28;20221;-77
2022/09/06 02:33:30;;;;;;;;;;;20.30;96.60;;;;;;5095163;28;19929;-79
2022/09/06 02:36:01;;;;;;;;;;;20.30;96.50;;;;;;5056421;28;19921;-77
2022/09/06 02:38:28;;;;;;;;;;;20.30;96.50;;;;;;5061457;28;19999;-76
2022/09/06 02:40:57;;;;;;;;;;;20.20;96.50;;;;;;5078360;28;19920;-77
2022/09/06 02:43:22;;;;;;;;;;;20.20;96.60;;;;;;5057899;28;19921;-77
2022/09/06 02:45:48;;;;;;;;;;;20.20;96.50;;;;;;5058032;28;19986;-78
2022/09/06 02:48:13;;;;;;;;;;;20.10;96.50;;;;;;5056975;28;19921;-79
2022/09/06 02:50:39;;;;;;;;;;;20.10;96.40;;;;;;5057916;28;20434;-78
2022/09/06 02:53:06;;;;;;;;;;;20.10;96.50;;;;;;5058547;28;19971;-77
2022/09/06 02:55:31;;;;;;;;;;;20.00;96.50;;;;;;5057128;28;19927;-78
2022/09/06 02:57:57;;;;;;;;;;;20.00;96.40;;;;;;5092100;28;19920;-78
2022/09/06 03:00:23;;;;;;;;;;;20.00;96.60;;;;;;5077500;28;20018;-77
2022/09/06 03:02:48;;;;;;;;;;;20.00;96.60;;;;;;5094974;28;20015;-77
2022/09/06 03:05:14;;;;;;;;;;;20.00;96.30;;;;;;5077645;28;19973;-77
2022/09/06 03:07:39;;;;;;;;;;;20.00;96.30;;;;;;5077923;28;19938;-76
2022/09/06 03:10:05;;;;;;;;;;;20.00;96.30;;;;;;5076951;28;19927;-77
2022/09/06 03:12:30;;;;;;;;;;;20.00;96.60;;;;;;5094256;28;20363;-77
2022/09/06 03:14:56;;;;;;;;;;;20.00;96.40;;;;;;5095858;28;19920;-77
2022/09/06 03:17:22;;;;;;;;;;;19.90;96.70;;;;;;5076908;28;19920;-77
2022/09/06 03:19:47;;;;;;;;;;;19.80;96.80;;;;;;5077420;28;20321;-77
2022/09/06 03:22:13;;;;;;;;;;;19.90;96.70;;;;;;5095408;28;19915;-77
2022/09/06 03:24:39;;;;;;;;;;;19.80;96.90;;;;;;5077056;28;19927;-77
2022/09/06 03:27:04;;;;;;;;;;;19.80;97.20;;;;;;5085249;28;19927;-76
2022/09/06 03:29:30;;;;;;;;;;;19.80;97.20;;;;;;5057253;28;19924;-75
2022/09/06 03:31:55;;;;;;;;;;;19.70;97.40;;;;;;5056121;28;19960;-76
2022/09/06 03:34:21;;;;;;;;;;;19.70;97.60;;;;;;5056729;28;19920;-75
2022/09/06 03:36:46;;;;;;;;;;;19.70;97.40;;;;;;5074922;28;20007;-73
2022/09/06 03:39:12;;;;;;;;;;;19.70;97.30;;;;;;5055984;28;19921;-71
2022/09/06 03:41:37;;;;;;;;;;;19.70;97.50;;;;;;5075799;28;20354;-74
2022/09/06 03:44:03;;;;;;;;;;;19.60;97.50;;;;;;5073809;28;19952;-74
2022/09/06 03:46:29;;;;;;;;;;;19.60;97.50;;;;;;5074886;28;19921;-74
2022/09/06 03:48:55;;;;;;;;;;;19.60;97.50;;;;;;5074385;28;19921;-74
2022/09/06 03:51:21;;;;;;;;;;;19.60;97.30;;;;;;5056436;28;20786;-75
2022/09/06 03:53:46;;;;;;;;;;;19.70;97.00;;;;;;5074849;28;19920;-75
2022/09/06 03:56:12;;;;;;;;;;;19.60;97.50;;;;;;5075897;28;19973;-75
2022/09/06 03:58:37;;;;;;;;;;;19.60;97.20;;;;;;5075051;28;20043;-74
2022/09/06 04:01:12;;;;;;;;;;;19.60;97.40;;;;;;5076067;28;19919;-73
2022/09/06 04:03:38;;;;;;;;;;;19.60;97.70;;;;;;5094796;28;19927;-77
2022/09/06 04:06:04;;;;;;;;;;;19.50;97.40;;;;;;5075391;28;19920;-76
2022/09/06 04:08:30;;;;;;;;;;;19.50;97.80;;;;;;5094305;28;19931;-76
2022/09/06 04:10:56;;;;;;;;;;;19.50;97.90;;;;;;5076966;28;20271;-77
2022/09/06 04:13:22;;;;;;;;;;;19.50;97.40;;;;;;5091991;28;19977;-76
2022/09/06 04:15:48;;;;;;;;;;;19.50;97.70;;;;;;5094431;28;19919;-77
2022/09/06 04:18:14;;;;;;;;;;;19.50;98.80;;;;;;5075734;28;20012;-75
2022/09/06 04:20:39;;;;;;;;;;;19.50;98.60;;;;;;5073956;28;19924;-76
2022/09/06 04:23:05;;;;;;;;;;;19.50;98.30;;;;;;5092038;28;20275;-79
2022/09/06 04:25:31;;;;;;;;;;;19.40;98.90;;;;;;5092598;28;19920;-80
2022/09/06 04:27:56;;;;;;;;;;;19.40;98.40;;;;;;5054318;28;19924;-78
2022/09/06 04:30:22;;;;;;;;;;;19.40;99.20;;;;;;5063529;28;20627;-80
2022/09/06 04:32:48;;;;;;;;;;;19.30;99.70;;;;;;5073031;28;19927;-75
2022/09/06 04:35:17;;;;;;;;;;;19.30;99.90;;;;;;5055473;28;19927;-71
2022/09/06 04:37:42;;;;;;;;;;;19.30;99.90;;;;;;5056182;28;19920;-75
2022/09/06 04:40:08;;;;;;;;;;;19.20;99.90;;;;;;5055988;28;19926;-72
2022/09/06 04:42:34;;;;;;;;;;;19.20;99.90;;;;;;5053236;28;19928;-71
2022/09/06 04:44:59;;;;;;;;;;;19.20;99.90;;;;;;5053374;28;19931;-78
2022/09/06 04:47:25;;;;;;;;;;;19.20;99.90;;;;;;5053081;28;19921;-75
2022/09/06 04:49:50;;;;;;;;;;;19.10;99.90;;;;;;5053499;28;19921;-76
2022/09/06 04:52:16;;;;;;;;;;;19.00;99.90;;;;;;5052267;28;20015;-78
2022/09/06 04:54:42;;;;;;;;;;;18.90;99.90;;;;;;5051694;28;19921;-75
2022/09/06 04:57:07;;;;;;;;;;;18.90;99.90;;;;;;5061236;28;20387;-79
2022/09/06 04:59:33;;;;;;;;;;;18.80;99.90;;;;;;5075429;28;19924;-73
2022/09/06 05:01:58;;;;;;;;;;;18.90;99.90;;;;;;5074147;28;19967;-74
2022/09/06 05:04:24;;;;;;;;;;;18.70;99.90;;;;;;5093850;28;19927;-75
2022/09/06 05:06:58;;;;;;;;;;;18.80;99.90;;;;;;5074955;28;19951;-77
2022/09/06 05:09:23;;;;;;;;;;;18.60;99.90;;;;;;5074756;28;20318;-75
2022/09/06 05:11:49;;;;;;;;;;;18.60;99.90;;;;;;5073679;28;19924;-78
2022/09/06 05:14:14;;;;;;;;;;;18.60;99.90;;;;;;5093482;28;19927;-78
2022/09/06 05:16:40;;;;;;;;;;;18.50;99.90;;;;;;5074242;28;19927;-79
2022/09/06 05:19:06;;;;;;;;;;;18.40;99.90;;;;;;5074005;28;20386;-79
2022/09/06 05:21:31;;;;;;;;;;;18.60;99.90;;;;;;5093273;28;19997;-78
2022/09/06 05:23:57;;;;;;;;;;;18.40;99.90;;;;;;5059372;28;19971;-76
2022/09/06 05:26:22;;;;;;;;;;;18.30;99.90;;;;;;5049596;28;19932;-80
2022/09/06 05:28:48;;;;;;;;;;;18.30;99.90;;;;;;5053430;28;19920;-74
2022/09/06 05:31:27;;;;;;;;;;;18.20;99.90;;;;;;5071208;28;19950;-76
2022/09/06 05:33:53;;;;;;;;;;;18.10;99.90;;;;;;5050083;28;20261;-81
2022/09/06 05:36:18;;;;;;;;;;;18.10;99.90;;;;;;5054385;28;19920;-80
2022/09/06 05:38:44;;;;;;;;;;;18.00;99.90;;;;;;5053333;28;19974;-80
2022/09/06 05:41:10;;;;;;;;;;;18.00;99.90;;;;;;5069241;28;20030;-79
2022/09/06 05:43:35;;;;;;;;;;;18.00;99.90;;;;;;5055585;28;20096;-80
2022/09/06 05:46:00;;;;;;;;;;;18.00;99.90;;;;;;5032308;28;20463;-80
2022/09/06 05:48:26;;;;;;;;;;;18.00;99.90;;;;;;5032613;28;19921;-79
2022/09/06 05:50:59;;;;;;;;;;;18.00;99.90;;;;;;5032316;28;19940;-80
2022/09/06 05:53:24;;;;;;;;;;;18.00;99.90;;;;;;5034140;28;19921;-79
2022/09/06 05:55:50;;;;;;;;;;;18.00;99.90;;;;;;5033916;28;20364;-80
2022/09/06 05:58:15;;;;;;;;;;;17.90;99.90;;;;;;5079377;28;20015;-80
2022/09/06 06:00:41;;;;;;;;;;;17.90;99.90;;;;;;5090701;28;19943;-80
2022/09/06 06:03:06;;;;;;;;;;;18.60;99.90;;;;;;5072311;28;19920;-80
2022/09/06 06:05:32;;;;;;;;;;;17.90;99.90;;;;;;5090260;28;19920;-77
2022/09/06 06:07:58;;;;;;;;;;;17.90;99.90;;;;;;5072687;28;20426;-78
2022/09/06 06:10:24;;;;;;;;;;;17.90;99.90;;;;;;5091170;28;19966;-78
2022/09/06 06:12:49;;;;;;;;;;;17.90;99.90;;;;;;5089983;28;19924;-79
2022/09/06 06:15:15;;;;;;;;;;;17.90;99.90;;;;;;5074779;28;19919;-77
2022/09/06 06:17:40;;;;;;;;;;;17.90;99.90;;;;;;5074508;28;19927;-76
2022/09/06 06:20:06;;;;;;;;;;;17.90;99.90;;;;;;5073647;28;20376;-77
2022/09/06 06:22:32;;;;;;;;;;;17.90;99.90;;;;;;5074902;28;19971;-77
2022/09/06 06:24:57;;;;;;;;;;;17.90;99.90;;;;;;5074553;28;20450;-78
2022/09/06 06:27:23;;;;;;;;;;;17.90;99.90;;;;;;5063145;28;19928;-80
2022/09/06 06:29:49;;;;;;;;;;;18.00;99.90;;;;;;5052570;28;19920;-78
2022/09/06 06:32:15;;;;;;;;;;;18.00;99.90;;;;;;5056522;28;20332;-77
2022/09/06 06:34:40;;;;;;;;;;;18.00;99.90;;;;;;5055887;28;20008;-78
2022/09/06 06:37:06;;;;;;;;;;;18.10;99.90;;;;;;5054923;28;19921;-79
2022/09/06 06:39:31;;;;;;;;;;;18.10;99.90;;;;;;5056426;28;19921;-77
2022/09/06 06:41:57;;;;;;;;;;;18.10;99.90;;;;;;5056157;28;19921;-78
2022/09/06 06:44:23;;;;;;;;;;;18.10;99.90;;;;;;5054983;28;19920;-79
2022/09/06 06:46:48;;;;;;;;;;;18.20;99.90;;;;;;5038546;28;19921;-79
2022/09/06 06:49:14;;;;;;;;;;;18.30;99.90;;;;;;5037309;28;20285;-77
2022/09/06 06:51:40;;;;;;;;;;;18.30;99.90;;;;;;5056181;28;19928;-79
2022/09/06 06:54:05;;;;;;;;;;;18.40;99.90;;;;;;5037440;28;19936;-78
2022/09/06 06:56:32;;;;;;;;;;;18.50;99.90;;;;;;5037914;28;19925;-78
2022/09/06 06:58:59;;;;;;;;;;;18.50;99.90;;;;;;5076777;28;19965;-73
2022/09/06 07:01:25;;;;;;;;;;;18.60;99.90;;;;;;5075929;28;19935;-77
2022/09/06 07:03:51;;;;;;;;;;;18.70;99.90;;;;;;5075156;28;20435;-73
2022/09/06 07:06:17;;;;;;;;;;;18.80;99.90;;;;;;5075564;28;20009;-73
2022/09/06 07:08:43;;;;;;;;;;;18.90;99.90;;;;;;5056783;28;20315;-73
2022/09/06 07:11:09;;;;;;;;;;;19.00;99.90;;;;;;5075083;28;19920;-73
2022/09/06 07:13:35;;;;;;;;;;;19.20;99.90;;;;;;5076615;28;19928;-73
2022/09/06 07:16:05;;;;;;;;;;;19.20;99.90;;;;;;5074255;28;19921;-73
2022/09/06 07:18:30;;;;;;;;;;;19.30;99.90;;;;;;5057473;28;20441;-73
2022/09/06 07:20:56;;;;;;;;;;;19.50;99.90;;;;;;5075058;28;19921;-73
2022/09/06 07:23:24;;;;;;;;;;;20.30;99.90;;;;;;5056500;28;19974;-76
2022/09/06 07:25:49;;;;;;;;;;;21.60;99.90;;;;;;5075253;28;20007;-76
2022/09/06 07:28:15;;;;;;;;;;;22.80;99.90;;;;;;5070929;28;20061;-75
2022/09/06 07:30:40;;;;;;;;;;;23.90;98.10;;;;;;5076425;28;20360;-75
2022/09/06 07:33:06;;;;;;;;;;;24.60;95.50;;;;;;5095092;28;19916;-75
2022/09/06 07:35:32;;;;;;;;;;;24.90;94.60;;;;;;5077185;28;19920;-76
2022/09/06 07:37:59;;;;;;;;;;;25.10;94.30;;;;;;5075808;28;20319;-75
2022/09/06 07:40:25;;;;;;;;;;;25.20;94.00;;;;;;5076653;28;19924;-76
2022/09/06 07:42:51;;;;;;;;;;;25.70;93.90;;;;;;5074246;28;19927;-75
2022/09/06 07:45:17;;;;;;;;;;;26.40;93.10;;;;;;5076292;28;19920;-76
2022/09/06 07:47:43;;;;;;;;;;;26.80;92.30;;;;;;5095191;28;20260;-77
2022/09/06 07:50:08;;;;;;;;;;;27.50;91.00;;;;;;5094432;28;19923;-76
2022/09/06 07:52:34;;;;;;;;;;;27.70;90.70;;;;;;5094368;28;20463;-76
2022/09/06 07:54:59;;;;;;;;;;;27.40;90.40;;;;;;5094825;28;20014;-76
2022/09/06 07:57:25;;;;;;;;;;;27.30;90.50;;;;;;5065921;28;19921;-77
2022/09/06 07:59:50;;;;;;;;;;;27.60;90.80;;;;;;5052683;28;20380;-76
2022/09/06 08:02:16;;;;;;;;;;;27.80;89.20;;;;;;5053199;28;19970;-78
2022/09/06 08:04:42;;;;;;;;;;;28.00;90.00;;;;;;5053741;28;19921;-76
2022/09/06 08:07:08;;;;;;;;;;;28.40;89.00;;;;;;5053178;28;19979;-76
2022/09/06 08:09:34;;;;;;;;;;;28.30;88.40;;;;;;5075115;28;20003;-77
2022/09/06 08:12:05;;;;;;;;;;;28.50;89.20;;;;;;5073223;28;19970;-77
2022/09/06 08:14:34;;;;;;;;;;;28.90;89.10;;;;;;5074300;28;19931;-77
2022/09/06 08:16:59;;;;;;;;;;;29.30;87.70;;;;;;5055444;28;19920;-78
2022/09/06 08:19:25;;;;;;;;;;;29.30;85.90;;;;;;5072132;28;19920;-76
2022/09/06 08:21:52;;;;;;;;;;;29.70;86.60;;;;;;5073496;28;19924;-76
2022/09/06 08:24:18;;;;;;;;;;;30.40;85.60;;;;;;5074465;28;19964;-76
2022/09/06 08:26:43;;;;;;;;;;;30.90;84.20;;;;;;5052421;28;20086;-76
2022/09/06 08:29:09;;;;;;;;;;;30.80;83.90;;;;;;5051974;28;20452;-77
2022/09/06 08:31:39;;;;;;;;;;;31.30;83.10;;;;;;5034621;28;20019;-76
2022/09/06 08:34:04;;;;;;;;;;;31.60;82.40;;;;;;5038270;28;20420;-76
2022/09/06 08:36:30;;;;;;;;;;;31.70;82.10;;;;;;5053072;28;19971;-76
2022/09/06 08:38:56;;;;;;;;;;;32.00;81.80;;;;;;5053184;28;19974;-76
2022/09/06 08:41:40;;;;;;;;;;;32.20;82.10;;;;;;5051442;28;19921;-76
2022/09/06 08:44:11;;;;;;;;;;;32.70;80.90;;;;;;5051789;28;19928;-77
2022/09/06 08:46:38;;;;;;;;;;;32.20;81.00;;;;;;5051619;28;19921;-76
2022/09/06 08:49:04;;;;;;;;;;;32.30;79.10;;;;;;5056418;28;19927;-76
2022/09/06 08:51:45;;;;;;;;;;;32.50;80.00;;;;;;5056062;28;20074;-76
2022/09/06 08:54:17;;;;;;;;;;;31.80;80.40;;;;;;5053856;28;20399;-76
2022/09/06 08:57:01;;;;;;;;;;;32.10;80.40;;;;;;5055907;28;20391;-76
2022/09/06 08:59:27;;;;;;;;;;;32.80;79.80;;;;;;5072950;28;20008;-77
2022/09/06 09:01:57;;;;;;;;;;;33.30;79.00;;;;;;5072239;28;19987;-76
2022/09/06 09:04:25;;;;;;;;;;;33.70;79.00;;;;;;5054848;28;19920;-76
2022/09/06 09:06:53;;;;;;;;;;;34.10;77.70;;;;;;5035823;28;19924;-76
2022/09/06 09:09:18;;;;;;;;;;;34.00;76.90;;;;;;5034583;28;19971;-77
2022/09/06 09:11:45;;;;;;;;;;;33.50;76.90;;;;;;5035322;28;20019;-77
2022/09/06 09:14:15;;;;;;;;;;;33.20;76.40;;;;;;5053054;28;19920;-76
2022/09/06 09:16:41;;;;;;;;;;;32.90;78.20;;;;;;5034028;28;19921;-75
2022/09/06 09:19:08;;;;;;;;;;;33.60;78.10;;;;;;5052951;28;20356;-76
2022/09/06 09:21:36;;;;;;;;;;;33.80;75.60;;;;;;5035440;28;19947;-76
2022/09/06 09:24:05;;;;;;;;;;;34.00;75.20;;;;;;5052412;28;19921;-76
2022/09/06 09:26:34;;;;;;;;;;;33.90;76.40;;;;;;5037477;28;19928;-77
2022/09/06 09:29:11;;;;;;;;;;;34.30;75.60;;;;;;5034146;28;19924;-76
2022/09/06 09:31:38;;;;;;;;;;;34.30;75.20;;;;;;5053040;28;19987;-76
2022/09/06 09:34:04;;;;;;;;;;;34.70;74.10;;;;;;5035075;28;19975;-76
2022/09/06 09:36:30;;;;;;;;;;;34.60;75.00;;;;;;5053703;28;19951;-76
2022/09/06 09:38:57;;;;;;;;;;;34.70;74.30;;;;;;5034512;28;19921;-75
2022/09/06 09:41:33;;;;;;;;;;;34.80;73.60;;;;;;5034853;28;20015;-76
2022/09/06 09:44:03;;;;;;;;;;;34.80;75.00;;;;;;5051830;28;19921;-76
2022/09/06 09:46:31;;;;;;;;;;;34.90;71.70;;;;;;5052619;28;20357;-76
2022/09/06 09:49:08;;;;;;;;;;;34.80;72.70;;;;;;5032509;28;20517;-76
2022/09/06 09:51:38;;;;;;;;;;;34.90;73.70;;;;;;5047859;28;19940;-75
2022/09/06 09:54:05;;;;;;;;;;;35.00;73.00;;;;;;5050564;28;20502;-76
2022/09/06 09:56:42;;;;;;;;;;;34.70;74.10;;;;;;5051339;28;19925;-76
2022/09/06 09:59:34;;;;;;;;;;;34.70;73.00;;;;;;5050153;28;19921;-76
2022/09/06 10:02:00;;;;;;;;;;;34.50;72.70;;;;;;5048329;28;19927;-76
2022/09/06 10:04:31;;;;;;;;;;;34.50;73.90;;;;;;5053566;28;19920;-76
2022/09/06 10:07:13;;;;;;;;;;;34.10;71.90;;;;;;5049971;28;19972;-76
2022/09/06 10:09:40;;;;;;;;;;;33.70;72.00;;;;;;5076854;28;19946;-76
2022/09/06 10:12:06;;;;;;;;;;;33.10;74.20;;;;;;5057761;28;20284;-76
2022/09/06 10:14:38;;;;;;;;;;;33.00;74.60;;;;;;5057763;28;19921;-77
2022/09/06 10:17:04;;;;;;;;;;;33.20;74.40;;;;;;5071652;28;19978;-74
2022/09/06 10:19:38;;;;;;;;;;;33.70;73.70;;;;;;5046790;28;19940;-70
2022/09/06 10:22:11;;;;;;;;;;;34.20;73.40;;;;;;5034752;28;19924;-77
2022/09/06 10:24:45;;;;;;;;;;;34.40;74.50;;;;;;5035483;28;19925;-78
2022/09/06 10:27:12;;;;;;;;;;;34.90;73.60;;;;;;5037671;28;19931;-73
2022/09/06 10:29:43;;;;;;;;;;;35.00;72.20;;;;;;5072743;28;19920;-74
2022/09/06 10:32:16;;;;;;;;;;;34.70;73.20;;;;;;5052917;28;20243;-77
2022/09/06 10:34:51;;;;;;;;;;;34.70;72.00;;;;;;5048784;28;19921;-74
2022/09/06 10:37:27;;;;;;;;;;;34.90;71.90;;;;;;5071727;28;20011;-74
2022/09/06 10:40:13;;;;;;;;;;;35.00;73.50;;;;;;5053193;28;19924;-78
2022/09/06 10:42:45;;;;;;;;;;;34.90;73.00;;;;;;5071405;28;20006;-74
2022/09/06 10:45:13;;;;;;;;;;;34.90;73.00;;;;;;5072297;28;19977;-74
2022/09/06 10:47:51;;;;;;;;;;;35.30;71.50;;;;;;5051591;28;19921;-73
2022/09/06 10:50:17;;;;;;;;;;;35.40;71.70;;;;;;5074935;28;19970;-77
2022/09/06 10:52:45;;;;;;;;;;;35.30;71.80;;;;;;5072757;28;19927;-78
2022/09/06 10:55:13;;;;;;;;;;;35.80;72.30;;;;;;5053448;28;19929;-76
2022/09/06 10:57:54;;;;;;;;;;;35.50;71.30;;;;;;5072985;28;19927;-75
2022/09/06 11:00:20;;;;;;;;;;;35.80;70.40;;;;;;5066703;28;19987;-74
2022/09/06 11:02:46;;;;;;;;;;;36.30;70.50;;;;;;5038993;28;20026;-76
2022/09/06 11:05:15;;;;;;;;;;;36.60;70.40;;;;;;5058756;28;19959;-73
2022/09/06 11:07:42;;;;;;;;;;;36.20;69.40;;;;;;5050019;28;19924;-76
2022/09/06 11:10:13;;;;;;;;;;;35.30;70.40;;;;;;5056090;28;20291;-76
2022/09/06 11:12:42;;;;;;;;;;;35.30;70.30;;;;;;5056090;28;20292;-79
2022/09/06 11:15:09;;;;;;;;;;;34.90;70.30;;;;;;5073281;28;19924;-76
2022/09/06 11:17:47;;;;;;;;;;;34.80;71.10;;;;;;5055000;28;19928;-75
2022/09/06 11:20:23;;;;;;;;;;;34.60;71.80;;;;;;5074950;28;19920;-74
2022/09/06 11:22:55;;;;;;;;;;;34.40;71.60;;;;;;5048425;28;19928;-76
2022/09/06 11:25:39;;;;;;;;;;;34.10;72.90;;;;;;5047619;28;20496;-75
2022/09/06 11:28:07;;;;;;;;;;;34.40;72.90;;;;;;5064024;28;19924;-77
2022/09/06 11:30:33;;;;;;;;;;;34.90;72.40;;;;;;5049757;28;20019;-76
2022/09/06 11:33:17;;;;;;;;;;;35.00;71.50;;;;;;5051098;28;19943;-77
2022/09/06 11:35:43;;;;;;;;;;;35.00;71.20;;;;;;5047539;28;20376;-79
2022/09/06 11:38:19;;;;;;;;;;;34.50;72.40;;;;;;5050061;28;20829;-79
2022/09/06 11:40:56;;;;;;;;;;;34.50;70.50;;;;;;5044653;28;19959;-77
2022/09/06 11:43:40;;;;;;;;;;;34.20;71.90;;;;;;5066323;28;19926;-78
2022/09/06 11:46:06;;;;;;;;;;;34.00;71.90;;;;;;5048900;28;19925;-77
2022/09/06 11:48:35;;;;;;;;;;;34.30;72.10;;;;;;5055118;28;19920;-77
2022/09/06 11:51:02;;;;;;;;;;;34.30;71.20;;;;;;5074071;28;19925;-77
2022/09/06 11:53:51;;;;;;;;;;;34.50;71.00;;;;;;5054029;28;19927;-75
2022/09/06 11:56:22;;;;;;;;;;;34.70;70.70;;;;;;5050575;28;20460;-75
2022/09/06 11:58:55;;;;;;;;;;;34.40;70.60;;;;;;5061824;28;19925;-75
2022/09/06 12:01:20;;;;;;;;;;;34.30;70.30;;;;;;5049572;28;19939;-74
2022/09/06 12:03:49;;;;;;;;;;;34.00;70.40;;;;;;5042430;28;19924;-77
2022/09/06 12:06:21;;;;;;;;;;;34.30;71.80;;;;;;5054579;28;20328;-75
2022/09/06 12:08:47;;;;;;;;;;;34.60;70.50;;;;;;5055681;28;20011;-74
2022/09/06 12:11:22;;;;;;;;;;;34.50;70.20;;;;;;5049791;28;20575;-75
2022/09/06 12:13:52;;;;;;;;;;;34.60;70.80;;;;;;5071925;28;19920;-75
2022/09/06 12:16:17;;;;;;;;;;;34.70;70.50;;;;;;5047086;28;19920;-73
2022/09/06 12:18:46;;;;;;;;;;;34.60;71.50;;;;;;5051336;28;19944;-71
2022/09/06 12:21:30;;;;;;;;;;;34.70;71.80;;;;;;5073470;28;19927;-71
2022/09/06 12:23:55;;;;;;;;;;;34.80;71.20;;;;;;5051779;28;19920;-73
2022/09/06 12:26:40;;;;;;;;;;;34.30;72.00;;;;;;5069594;28;20283;-73
2022/09/06 12:29:09;;;;;;;;;;;33.80;72.40;;;;;;5051008;28;19951;-72
2022/09/06 12:31:39;;;;;;;;;;;32.70;71.40;;;;;;5070031;28;20279;-72
2022/09/06 12:34:10;;;;;;;;;;;31.70;73.60;;;;;;5050912;28;20261;-71
2022/09/06 12:36:45;;;;;;;;;;;30.90;75.00;;;;;;5049176;28;20372;-71
2022/09/06 12:39:11;;;;;;;;;;;30.50;75.70;;;;;;5048394;28;19939;-74
2022/09/06 12:41:41;;;;;;;;;;;30.10;76.40;;;;;;5052659;28;20448;-74
2022/09/06 12:44:07;;;;;;;;;;;29.90;78.10;;;;;;5075160;28;20428;-75
2022/09/06 12:46:33;;;;;;;;;;;30.60;78.20;;;;;;5064932;28;19924;-74
2022/09/06 12:49:00;;;;;;;;;;;31.30;77.10;;;;;;5058155;28;19932;-73
2022/09/06 12:51:25;;;;;;;;;;;31.50;76.60;;;;;;5077849;28;19967;-73
2022/09/06 12:53:52;;;;;;;;;;;32.00;75.10;;;;;;5054409;28;19920;-79
2022/09/06 12:56:21;;;;;;;;;;;31.80;75.80;;;;;;5073587;28;19924;-77
2022/09/06 12:58:47;;;;;;;;;;;31.60;76.30;;;;;;5073929;28;19964;-77
2022/09/06 13:01:21;;;;;;;;;;;31.50;76.90;;;;;;5072503;28;19970;-76
2022/09/06 13:04:05;;;;;;;;;;;31.30;76.20;;;;;;5076342;28;19966;-76
2022/09/06 13:06:37;;;;;;;;;;;31.00;77.50;;;;;;5073966;28;19936;-75
2022/09/06 13:09:04;;;;;;;;;;;31.00;78.50;;;;;;5052046;28;19994;-76
2022/09/06 13:11:31;;;;;;;;;;;31.20;78.40;;;;;;5049667;28;19920;-75
2022/09/06 13:13:57;;;;;;;;;;;31.30;77.00;;;;;;5045618;28;19920;-75
2022/09/06 13:16:24;;;;;;;;;;;31.10;77.00;;;;;;5071164;28;19920;-78
2022/09/06 13:18:50;;;;;;;;;;;30.90;76.80;;;;;;5071805;28;19927;-76
2022/09/06 13:21:31;;;;;;;;;;;30.80;77.50;;;;;;5073665;28;19920;-77
2022/09/06 13:23:57;;;;;;;;;;;30.80;77.20;;;;;;5092874;28;20379;-75
2022/09/06 13:26:32;;;;;;;;;;;30.90;77.50;;;;;;5074931;28;19926;-76
2022/09/06 13:29:07;;;;;;;;;;;30.90;76.40;;;;;;5073976;28;19923;-75
2022/09/06 13:31:33;;;;;;;;;;;30.80;75.00;;;;;;5075397;28;19970;-76
2022/09/06 13:33:58;;;;;;;;;;;30.60;75.90;;;;;;5066548;28;19948;-77
2022/09/06 13:36:29;;;;;;;;;;;30.50;77.10;;;;;;5050673;28;20011;-75
2022/09/06 13:38:55;;;;;;;;;;;30.40;77.10;;;;;;5038604;28;20387;-76
2022/09/06 13:41:24;;;;;;;;;;;30.40;76.90;;;;;;5054677;28;19924;-76
2022/09/06 13:43:57;;;;;;;;;;;30.00;77.80;;;;;;5054345;28;19921;-75
2022/09/06 13:46:22;;;;;;;;;;;29.90;78.30;;;;;;5072966;28;20011;-77
2022/09/06 13:48:48;;;;;;;;;;;29.80;79.30;;;;;;5054557;28;20035;-75
2022/09/06 13:51:13;;;;;;;;;;;29.60;79.80;;;;;;5053019;28;19929;-75
2022/09/06 13:53:39;;;;;;;;;;;29.40;80.60;;;;;;5073176;28;20011;-75
2022/09/06 13:56:07;;;;;;;;;;;29.30;80.80;;;;;;5071732;28;19920;-75
2022/09/06 13:58:33;;;;;;;;;;;29.30;80.20;;;;;;5073030;28;20006;-75
2022/09/06 14:00:59;;;;;;;;;;;29.30;80.60;;;;;;5072398;28;19928;-75
2022/09/06 14:03:27;;;;;;;;;;;29.60;80.30;;;;;;5053797;28;19920;-74
2022/09/06 14:05:52;;;;;;;;;;;29.80;80.10;;;;;;5044226;28;19920;-75
2022/09/06 14:08:18;;;;;;;;;;;29.80;80.90;;;;;;5066319;28;19974;-75
2022/09/06 14:10:46;;;;;;;;;;;29.90;79.60;;;;;;5059182;28;20368;-74
2022/09/06 14:13:11;;;;;;;;;;;30.00;79.80;;;;;;5066274;28;19930;-76
2022/09/06 14:15:37;;;;;;;;;;;30.00;80.50;;;;;;5059077;28;19920;-75
2022/09/06 14:18:02;;;;;;;;;;;30.00;80.20;;;;;;5084136;28;19927;-74
2022/09/06 14:20:28;;;;;;;;;;;29.90;81.00;;;;;;5051972;28;19927;-76
2022/09/06 14:22:53;;;;;;;;;;;30.10;79.80;;;;;;5079969;28;20065;-76